sensor_id;sensor_type;location;lat;lon;timestamp;pressure;altitude;pressure_sealevel;temperature;humidity
7962;BME280;4026;43.652;24.906;2023-02-02T00:01:11;99146.00;;;2.93;100.00
7962;BME280;4026;43.652;24.906;2023-02-02T00:03:38;99147.44;;;3.00;100.00
7962;BME280;4026;43.652;24.906;2023-02-02T00:06:05;99145.97;;;2.94;100.00
7962;BME280;4026;43.652;24.906;2023-02-02T00:08:32;99145.28;;;2.91;100.00
7962;BME280;4026;43.652;24.906;2023-02-02T00:11:01;99139.69;;;2.83;100.00
7962;BME280;4026;43.652;24.906;2023-02-02T00:13:28;99145.16;;;2.72;100.00
7962;BME280;4026;43.652;24.906;2023-02-02T00:15:55;99143.00;;;2.63;100.00
7962;BME280;4026;43.652;24.906;2023-02-02T00:18:22;99147.41;;;2.58;100.00
7962;BME280;4026;43.652;24.906;2023-02-02T00:20:49;99148.28;;;2.57;100.00
7962;BME280;4026;43.652;24.906;2023-02-02T00:23:17;99140.19;;;2.48;100.00
7962;BME280;4026;43.652;24.906;2023-02-02T00:25:43;99138.06;;;2.38;100.00
7962;BME280;4026;43.652;24.906;2023-02-02T00:28:14;99139.13;;;2.32;100.00
7962;BME280;4026;43.652;24.906;2023-02-02T00:30:41;99127.63;;;2.25;100.00
7962;BME280;4026;43.652;24.906;2023-02-02T00:33:10;99131.34;;;2.15;100.00
7962;BME280;4026;43.652;24.906;2023-02-02T00:35:40;99117.88;;;2.16;100.00
7962;BME280;4026;43.652;24.906;2023-02-02T00:38:07;99113.53;;;2.19;100.00
7962;BME280;4026;43.652;24.906;2023-02-02T00:40:34;99122.13;;;2.15;100.00
7962;BME280;4026;43.652;24.906;2023-02-02T00:43:01;99123.16;;;2.10;100.00
7962;BME280;4026;43.652;24.906;2023-02-02T00:45:29;99128.38;;;2.05;100.00
7962;BME280;4026;43.652;24.906;2023-02-02T00:47:55;99130.41;;;1.95;100.00
7962;BME280;4026;43.652;24.906;2023-02-02T00:50:22;99127.66;;;2.01;100.00
7962;BME280;4026;43.652;24.906;2023-02-02T00:52:49;99134.78;;;1.90;100.00
7962;BME280;4026;43.652;24.906;2023-02-02T00:55:16;99126.53;;;1.87;100.00
7962;BME280;4026;43.652;24.906;2023-02-02T00:57:43;99124.16;;;1.82;100.00
7962;BME280;4026;43.652;24.906;2023-02-02T01:00:13;99117.59;;;1.78;100.00
7962;BME280;4026;43.652;24.906;2023-02-02T01:02:42;99114.50;;;1.70;100.00
7962;BME280;4026;43.652;24.906;2023-02-02T01:05:09;99135.66;;;1.66;100.00
7962;BME280;4026;43.652;24.906;2023-02-02T01:07:37;99136.75;;;1.58;100.00
7962;BME280;4026;43.652;24.906;2023-02-02T01:10:05;99128.63;;;1.50;100.00
7962;BME280;4026;43.652;24.906;2023-02-02T01:12:33;99127.00;;;1.49;100.00
7962;BME280;4026;43.652;24.906;2023-02-02T01:15:00;99134.00;;;1.41;100.00
7962;BME280;4026;43.652;24.906;2023-02-02T01:17:27;99134.09;;;1.38;100.00
7962;BME280;4026;43.652;24.906;2023-02-02T01:19:55;99132.34;;;1.40;100.00
7962;BME280;4026;43.652;24.906;2023-02-02T01:22:22;99129.25;;;1.32;100.00
7962;BME280;4026;43.652;24.906;2023-02-02T01:24:49;99131.72;;;1.33;100.00
7962;BME280;4026;43.652;24.906;2023-02-02T01:27:16;99129.69;;;1.20;100.00
7962;BME280;4026;43.652;24.906;2023-02-02T01:29:43;99135.78;;;1.12;100.00
7962;BME280;4026;43.652;24.906;2023-02-02T01:32:10;99140.22;;;1.04;100.00
7962;BME280;4026;43.652;24.906;2023-02-02T01:34:37;99136.97;;;1.02;100.00
7962;BME280;4026;43.652;24.906;2023-02-02T01:37:07;99126.16;;;0.99;100.00
7962;BME280;4026;43.652;24.906;2023-02-02T01:39:34;99120.31;;;0.98;100.00
7962;BME280;4026;43.652;24.906;2023-02-02T01:42:02;99120.41;;;0.95;100.00
7962;BME280;4026;43.652;24.906;2023-02-02T01:45:05;99117.88;;;0.95;100.00
7962;BME280;4026;43.652;24.906;2023-02-02T01:47:36;99116.09;;;0.99;100.00
7962;BME280;4026;43.652;24.906;2023-02-02T01:50:05;99125.34;;;0.98;100.00
7962;BME280;4026;43.652;24.906;2023-02-02T01:52:36;99110.34;;;0.95;100.00
7962;BME280;4026;43.652;24.906;2023-02-02T01:55:07;99113.63;;;0.97;100.00
7962;BME280;4026;43.652;24.906;2023-02-02T01:57:39;99104.25;;;1.02;100.00
7962;BME280;4026;43.652;24.906;2023-02-02T02:00:11;99102.66;;;1.00;100.00
7962;BME280;4026;43.652;24.906;2023-02-02T02:02:39;99105.41;;;0.92;100.00
7962;BME280;4026;43.652;24.906;2023-02-02T02:05:08;99106.28;;;0.91;100.00
7962;BME280;4026;43.652;24.906;2023-02-02T02:07:37;99103.06;;;0.87;100.00
7962;BME280;4026;43.652;24.906;2023-02-02T02:10:07;99102.16;;;0.88;100.00
7962;BME280;4026;43.652;24.906;2023-02-02T02:12:34;99102.09;;;0.90;100.00
7962;BME280;4026;43.652;24.906;2023-02-02T02:15:01;99096.97;;;0.93;100.00
7962;BME280;4026;43.652;24.906;2023-02-02T02:17:53;99099.31;;;0.99;100.00
7962;BME280;4026;43.652;24.906;2023-02-02T02:20:44;99096.91;;;0.96;100.00
7962;BME280;4026;43.652;24.906;2023-02-02T02:24:06;99095.94;;;0.99;100.00
7962;BME280;4026;43.652;24.906;2023-02-02T02:27:18;99099.09;;;1.05;100.00
7962;BME280;4026;43.652;24.906;2023-02-02T02:30:16;99101.50;;;1.08;100.00
7962;BME280;4026;43.652;24.906;2023-02-02T02:32:51;99107.88;;;1.19;100.00
7962;BME280;4026;43.652;24.906;2023-02-02T02:35:30;99108.44;;;1.27;100.00
7962;BME280;4026;43.652;24.906;2023-02-02T02:38:03;99108.69;;;1.44;100.00
7962;BME280;4026;43.652;24.906;2023-02-02T02:40:37;99110.38;;;1.44;100.00
7962;BME280;4026;43.652;24.906;2023-02-02T02:43:10;99110.13;;;1.51;100.00
7962;BME280;4026;43.652;24.906;2023-02-02T02:45:38;99109.81;;;1.61;100.00
7962;BME280;4026;43.652;24.906;2023-02-02T02:48:09;99108.03;;;1.63;100.00
7962;BME280;4026;43.652;24.906;2023-02-02T02:50:36;99113.06;;;1.63;100.00
7962;BME280;4026;43.652;24.906;2023-02-02T02:53:05;99106.19;;;1.68;100.00
7962;BME280;4026;43.652;24.906;2023-02-02T02:55:39;99104.44;;;1.70;100.00
7962;BME280;4026;43.652;24.906;2023-02-02T02:58:12;99102.34;;;1.81;100.00
7962;BME280;4026;43.652;24.906;2023-02-02T03:00:47;99109.00;;;1.84;100.00
7962;BME280;4026;43.652;24.906;2023-02-02T03:03:27;99106.66;;;1.77;100.00
7962;BME280;4026;43.652;24.906;2023-02-02T03:06:03;99113.47;;;1.75;100.00
7962;BME280;4026;43.652;24.906;2023-02-02T03:08:33;99115.59;;;1.86;100.00
7962;BME280;4026;43.652;24.906;2023-02-02T03:11:03;99110.63;;;1.85;100.00
7962;BME280;4026;43.652;24.906;2023-02-02T03:13:32;99119.06;;;1.84;100.00
7962;BME280;4026;43.652;24.906;2023-02-02T03:15:58;99104.47;;;1.92;100.00
7962;BME280;4026;43.652;24.906;2023-02-02T03:18:29;99109.91;;;2.04;100.00
7962;BME280;4026;43.652;24.906;2023-02-02T03:20:56;99114.94;;;2.04;100.00
7962;BME280;4026;43.652;24.906;2023-02-02T03:23:24;99104.50;;;2.14;100.00
7962;BME280;4026;43.652;24.906;2023-02-02T03:25:51;99108.72;;;2.13;100.00
7962;BME280;4026;43.652;24.906;2023-02-02T03:28:19;99112.84;;;2.16;100.00
7962;BME280;4026;43.652;24.906;2023-02-02T03:30:47;99105.78;;;2.24;100.00
7962;BME280;4026;43.652;24.906;2023-02-02T03:33:14;99094.41;;;2.14;100.00
7962;BME280;4026;43.652;24.906;2023-02-02T03:35:44;99098.44;;;2.18;100.00
7962;BME280;4026;43.652;24.906;2023-02-02T03:38:11;99099.56;;;2.11;100.00
7962;BME280;4026;43.652;24.906;2023-02-02T03:40:38;99098.81;;;2.09;100.00
7962;BME280;4026;43.652;24.906;2023-02-02T03:43:05;99099.94;;;2.01;100.00
7962;BME280;4026;43.652;24.906;2023-02-02T03:45:33;99097.44;;;2.00;100.00
7962;BME280;4026;43.652;24.906;2023-02-02T03:48:03;99093.44;;;1.94;100.00
7962;BME280;4026;43.652;24.906;2023-02-02T03:50:30;99096.75;;;1.96;100.00
7962;BME280;4026;43.652;24.906;2023-02-02T03:52:58;99093.34;;;1.97;100.00
7962;BME280;4026;43.652;24.906;2023-02-02T03:55:25;99096.03;;;1.93;100.00
7962;BME280;4026;43.652;24.906;2023-02-02T03:57:52;99094.88;;;2.01;100.00
7962;BME280;4026;43.652;24.906;2023-02-02T04:00:20;99086.31;;;2.06;100.00
7962;BME280;4026;43.652;24.906;2023-02-02T04:02:46;99091.13;;;2.12;100.00
7962;BME280;4026;43.652;24.906;2023-02-02T04:05:13;99089.94;;;2.20;100.00
7962;BME280;4026;43.652;24.906;2023-02-02T04:07:40;99087.50;;;2.19;100.00
7962;BME280;4026;43.652;24.906;2023-02-02T04:10:10;99090.66;;;2.24;100.00
7962;BME280;4026;43.652;24.906;2023-02-02T04:12:37;99084.91;;;2.20;100.00
7962;BME280;4026;43.652;24.906;2023-02-02T04:15:04;99077.28;;;2.22;100.00
7962;BME280;4026;43.652;24.906;2023-02-02T04:17:31;99089.19;;;2.40;100.00
7962;BME280;4026;43.652;24.906;2023-02-02T04:19:59;99093.59;;;2.35;100.00
7962;BME280;4026;43.652;24.906;2023-02-02T04:22:26;99100.41;;;2.33;100.00
7962;BME280;4026;43.652;24.906;2023-02-02T04:24:53;99101.94;;;2.37;100.00
7962;BME280;4026;43.652;24.906;2023-02-02T04:27:22;99101.38;;;2.29;100.00
7962;BME280;4026;43.652;24.906;2023-02-02T04:29:49;99103.16;;;2.27;100.00
7962;BME280;4026;43.652;24.906;2023-02-02T04:32:16;99102.28;;;2.28;100.00
7962;BME280;4026;43.652;24.906;2023-02-02T04:34:43;99090.44;;;2.30;100.00
7962;BME280;4026;43.652;24.906;2023-02-02T04:37:11;99090.56;;;2.27;100.00
7962;BME280;4026;43.652;24.906;2023-02-02T04:39:37;99085.50;;;2.27;100.00
7962;BME280;4026;43.652;24.906;2023-02-02T04:42:04;99094.06;;;2.23;100.00
7962;BME280;4026;43.652;24.906;2023-02-02T04:44:33;99090.78;;;2.21;100.00
7962;BME280;4026;43.652;24.906;2023-02-02T04:47:00;99090.97;;;2.16;100.00
7962;BME280;4026;43.652;24.906;2023-02-02T04:49:27;99095.13;;;2.17;100.00
7962;BME280;4026;43.652;24.906;2023-02-02T04:51:54;99098.00;;;2.08;100.00
7962;BME280;4026;43.652;24.906;2023-02-02T04:54:21;99097.28;;;2.04;100.00
7962;BME280;4026;43.652;24.906;2023-02-02T04:56:48;99099.94;;;2.01;100.00
7962;BME280;4026;43.652;24.906;2023-02-02T04:59:15;99106.81;;;1.96;100.00
7962;BME280;4026;43.652;24.906;2023-02-02T05:01:43;99108.53;;;1.96;100.00
7962;BME280;4026;43.652;24.906;2023-02-02T05:04:10;99111.09;;;1.94;100.00
7962;BME280;4026;43.652;24.906;2023-02-02T05:06:37;99115.41;;;1.92;100.00
7962;BME280;4026;43.652;24.906;2023-02-02T05:09:04;99121.25;;;1.93;100.00
7962;BME280;4026;43.652;24.906;2023-02-02T05:11:31;99123.59;;;1.97;100.00
7962;BME280;4026;43.652;24.906;2023-02-02T05:13:58;99122.78;;;1.97;100.00
7962;BME280;4026;43.652;24.906;2023-02-02T05:16:24;99116.38;;;1.88;100.00
7962;BME280;4026;43.652;24.906;2023-02-02T05:18:54;99118.78;;;1.91;100.00
7962;BME280;4026;43.652;24.906;2023-02-02T05:21:22;99122.00;;;1.95;100.00
7962;BME280;4026;43.652;24.906;2023-02-02T05:23:49;99118.88;;;1.88;100.00
7962;BME280;4026;43.652;24.906;2023-02-02T05:26:18;99121.41;;;1.88;100.00
7962;BME280;4026;43.652;24.906;2023-02-02T05:28:46;99110.34;;;1.92;100.00
7962;BME280;4026;43.652;24.906;2023-02-02T05:31:13;99113.50;;;1.97;100.00
7962;BME280;4026;43.652;24.906;2023-02-02T05:33:40;99103.41;;;1.97;100.00
7962;BME280;4026;43.652;24.906;2023-02-02T05:36:09;99115.28;;;1.95;100.00
7962;BME280;4026;43.652;24.906;2023-02-02T05:38:36;99108.81;;;1.88;100.00
7962;BME280;4026;43.652;24.906;2023-02-02T05:41:03;99115.69;;;1.83;100.00
7962;BME280;4026;43.652;24.906;2023-02-02T05:43:31;99115.69;;;1.83;100.00
7962;BME280;4026;43.652;24.906;2023-02-02T05:45:59;99115.69;;;1.83;100.00
7962;BME280;4026;43.652;24.906;2023-02-02T05:48:26;99115.59;;;1.86;100.00
7962;BME280;4026;43.652;24.906;2023-02-02T05:50:57;99115.28;;;1.95;100.00
7962;BME280;4026;43.652;24.906;2023-02-02T05:53:27;99116.81;;;1.99;100.00
7962;BME280;4026;43.652;24.906;2023-02-02T05:55:54;99119.28;;;2.01;100.00
7962;BME280;4026;43.652;24.906;2023-02-02T05:58:20;99118.44;;;2.00;100.00
7962;BME280;4026;43.652;24.906;2023-02-02T06:00:47;99125.06;;;2.03;100.00
7962;BME280;4026;43.652;24.906;2023-02-02T06:03:14;99125.03;;;2.04;100.00
7962;BME280;4026;43.652;24.906;2023-02-02T06:05:41;99132.41;;;2.09;100.00
7962;BME280;4026;43.652;24.906;2023-02-02T06:08:08;99126.63;;;2.07;100.00
7962;BME280;4026;43.652;24.906;2023-02-02T06:10:39;99130.41;;;2.17;100.00
7962;BME280;4026;43.652;24.906;2023-02-02T06:13:06;99126.09;;;2.21;100.00
7962;BME280;4026;43.652;24.906;2023-02-02T06:15:33;99129.44;;;2.21;100.00
7962;BME280;4026;43.652;24.906;2023-02-02T06:18:00;99131.53;;;2.32;100.00
7962;BME280;4026;43.652;24.906;2023-02-02T06:20:27;99129.03;;;2.32;100.00
7962;BME280;4026;43.652;24.906;2023-02-02T06:22:54;99140.00;;;2.31;100.00
7962;BME280;4026;43.652;24.906;2023-02-02T06:25:21;99126.91;;;2.43;100.00
7962;BME280;4026;43.652;24.906;2023-02-02T06:27:51;99136.84;;;2.48;100.00
7962;BME280;4026;43.652;24.906;2023-02-02T06:30:20;99140.06;;;2.52;100.00
7962;BME280;4026;43.652;24.906;2023-02-02T06:32:47;99140.06;;;2.52;100.00
7962;BME280;4026;43.652;24.906;2023-02-02T06:35:14;99136.31;;;2.62;100.00
7962;BME280;4026;43.652;24.906;2023-02-02T06:37:41;99141.25;;;2.65;100.00
7962;BME280;4026;43.652;24.906;2023-02-02T06:40:09;99134.16;;;2.73;100.00
7962;BME280;4026;43.652;24.906;2023-02-02T06:42:36;99139.09;;;2.76;100.00
7962;BME280;4026;43.652;24.906;2023-02-02T06:45:05;99139.09;;;2.76;100.00
7962;BME280;4026;43.652;24.906;2023-02-02T06:47:32;99145.00;;;2.77;100.00
7962;BME280;4026;43.652;24.906;2023-02-02T06:49:59;99151.59;;;2.79;100.00
7962;BME280;4026;43.652;24.906;2023-02-02T06:52:25;99155.66;;;2.83;100.00
7962;BME280;4026;43.652;24.906;2023-02-02T06:54:54;99165.28;;;2.95;100.00
7962;BME280;4026;43.652;24.906;2023-02-02T06:57:20;99153.28;;;3.01;100.00
7962;BME280;4026;43.652;24.906;2023-02-02T06:59:47;99163.03;;;3.10;100.00
7962;BME280;4026;43.652;24.906;2023-02-02T07:02:16;99156.09;;;3.15;100.00
7962;BME280;4026;43.652;24.906;2023-02-02T07:04:43;99162.63;;;3.19;100.00
7962;BME280;4026;43.652;24.906;2023-02-02T07:07:10;99162.72;;;3.17;100.00
7962;BME280;4026;43.652;24.906;2023-02-02T07:09:37;99167.81;;;3.16;100.00
7962;BME280;4026;43.652;24.906;2023-02-02T07:12:05;99162.63;;;3.19;100.00
7962;BME280;4026;43.652;24.906;2023-02-02T07:14:31;99177.91;;;3.16;100.00
7962;BME280;4026;43.652;24.906;2023-02-02T07:16:58;99174.59;;;3.15;100.00
7962;BME280;4026;43.652;24.906;2023-02-02T07:19:27;99176.53;;;3.09;100.00
7962;BME280;4026;43.652;24.906;2023-02-02T07:21:53;99180.44;;;3.16;100.00
7962;BME280;4026;43.652;24.906;2023-02-02T07:24:20;99179.94;;;3.08;100.00
7962;BME280;4026;43.652;24.906;2023-02-02T07:26:47;99185.09;;;3.05;100.00
7962;BME280;4026;43.652;24.906;2023-02-02T07:29:14;99188.66;;;3.01;100.00
7962;BME280;4026;43.652;24.906;2023-02-02T07:31:41;99191.94;;;3.03;100.00
7962;BME280;4026;43.652;24.906;2023-02-02T07:34:07;99191.47;;;3.35;100.00
7962;BME280;4026;43.652;24.906;2023-02-02T07:36:36;99202.53;;;3.72;100.00
7962;BME280;4026;43.652;24.906;2023-02-02T07:39:03;99202.88;;;3.85;100.00
7962;BME280;4026;43.652;24.906;2023-02-02T07:41:33;99198.72;;;4.03;100.00
7962;BME280;4026;43.652;24.906;2023-02-02T07:44:01;99194.56;;;4.02;100.00
7962;BME280;4026;43.652;24.906;2023-02-02T07:46:28;99185.53;;;4.15;100.00
7962;BME280;4026;43.652;24.906;2023-02-02T07:48:55;99187.84;;;4.58;100.00
7962;BME280;4026;43.652;24.906;2023-02-02T07:51:23;99185.00;;;5.17;100.00
7962;BME280;4026;43.652;24.906;2023-02-02T07:53:53;99176.16;;;5.77;94.56
7962;BME280;4026;43.652;24.906;2023-02-02T07:56:24;99171.31;;;6.05;90.05
7962;BME280;4026;43.652;24.906;2023-02-02T07:58:54;99165.66;;;6.16;87.59
7962;BME280;4026;43.652;24.906;2023-02-02T08:01:22;99167.22;;;6.66;88.06
7962;BME280;4026;43.652;24.906;2023-02-02T08:03:51;99158.44;;;7.46;83.49
7962;BME280;4026;43.652;24.906;2023-02-02T08:06:20;99171.72;;;7.80;78.23
7962;BME280;4026;43.652;24.906;2023-02-02T08:08:48;99162.97;;;7.56;77.89
7962;BME280;4026;43.652;24.906;2023-02-02T08:11:18;99164.91;;;7.66;76.66
7962;BME280;4026;43.652;24.906;2023-02-02T08:13:48;99165.81;;;7.80;78.32
7962;BME280;4026;43.652;24.906;2023-02-02T08:16:15;99156.91;;;8.28;77.48
7962;BME280;4026;43.652;24.906;2023-02-02T08:18:42;99158.50;;;7.31;77.41
7962;BME280;4026;43.652;24.906;2023-02-02T08:21:10;99159.19;;;7.18;78.06
7962;BME280;4026;43.652;24.906;2023-02-02T08:23:38;99163.66;;;7.15;79.70
7962;BME280;4026;43.652;24.906;2023-02-02T08:26:07;99159.00;;;7.66;78.38
7962;BME280;4026;43.652;24.906;2023-02-02T08:28:36;99157.25;;;8.51;75.94
7962;BME280;4026;43.652;24.906;2023-02-02T08:31:04;99165.97;;;9.01;69.84
7962;BME280;4026;43.652;24.906;2023-02-02T08:33:31;99153.88;;;8.77;70.03
7962;BME280;4026;43.652;24.906;2023-02-02T08:35:58;99157.75;;;8.70;70.13
7962;BME280;4026;43.652;24.906;2023-02-02T08:38:25;99166.88;;;8.60;71.16
7962;BME280;4026;43.652;24.906;2023-02-02T08:40:52;99160.19;;;8.45;72.51
7962;BME280;4026;43.652;24.906;2023-02-02T08:43:19;99159.31;;;8.17;71.74
7962;BME280;4026;43.652;24.906;2023-02-02T08:45:49;99148.78;;;8.09;74.43
7962;BME280;4026;43.652;24.906;2023-02-02T08:48:16;99151.16;;;8.12;74.16
7962;BME280;4026;43.652;24.906;2023-02-02T08:50:51;99169.19;;;7.94;74.99
7962;BME280;4026;43.652;24.906;2023-02-02T08:53:18;99170.13;;;7.35;75.81
7962;BME280;4026;43.652;24.906;2023-02-02T08:55:45;99167.78;;;7.46;79.31
7962;BME280;4026;43.652;24.906;2023-02-02T08:58:12;99157.69;;;7.30;78.27
7962;BME280;4026;43.652;24.906;2023-02-02T09:00:39;99156.25;;;7.55;79.33
7962;BME280;4026;43.652;24.906;2023-02-02T09:03:07;99150.81;;;7.61;78.00
7962;BME280;4026;43.652;24.906;2023-02-02T09:05:34;99160.72;;;7.80;79.46
7962;BME280;4026;43.652;24.906;2023-02-02T09:08:03;99146.38;;;8.89;79.51
7962;BME280;4026;43.652;24.906;2023-02-02T09:10:30;99129.41;;;10.03;73.07
7962;BME280;4026;43.652;24.906;2023-02-02T09:13:00;99133.69;;;10.02;70.67
7962;BME280;4026;43.652;24.906;2023-02-02T09:15:27;99145.31;;;9.44;68.50
7962;BME280;4026;43.652;24.906;2023-02-02T09:17:54;99140.22;;;8.78;72.55
7962;BME280;4026;43.652;24.906;2023-02-02T09:20:22;99137.66;;;8.38;74.24
7962;BME280;4026;43.652;24.906;2023-02-02T09:22:49;99136.91;;;7.81;74.36
7962;BME280;4026;43.652;24.906;2023-02-02T09:25:15;99132.19;;;7.75;75.31
7962;BME280;4026;43.652;24.906;2023-02-02T09:27:42;99128.34;;;7.82;75.29
7962;BME280;4026;43.652;24.906;2023-02-02T09:30:10;99118.63;;;7.88;76.81
7962;BME280;4026;43.652;24.906;2023-02-02T09:32:37;99126.91;;;7.92;75.07
7962;BME280;4026;43.652;24.906;2023-02-02T09:35:05;99114.59;;;7.99;75.49
7962;BME280;4026;43.652;24.906;2023-02-02T09:37:34;99119.44;;;7.89;74.20
7962;BME280;4026;43.652;24.906;2023-02-02T09:40:01;99113.66;;;8.14;75.48
7962;BME280;4026;43.652;24.906;2023-02-02T09:42:38;99097.53;;;7.86;76.53
7962;BME280;4026;43.652;24.906;2023-02-02T09:45:16;99089.53;;;7.92;76.13
7962;BME280;4026;43.652;24.906;2023-02-02T09:47:54;99083.75;;;8.18;74.12
7962;BME280;4026;43.652;24.906;2023-02-02T09:50:44;99085.19;;;8.22;75.65
7962;BME280;4026;43.652;24.906;2023-02-02T09:53:20;99083.63;;;8.19;74.33
7962;BME280;4026;43.652;24.906;2023-02-02T09:55:50;99078.75;;;8.16;75.73
7962;BME280;4026;43.652;24.906;2023-02-02T09:58:20;99078.88;;;8.42;74.13
7962;BME280;4026;43.652;24.906;2023-02-02T10:00:54;99073.25;;;8.49;74.22
7962;BME280;4026;43.652;24.906;2023-02-02T10:03:29;99069.22;;;8.47;69.09
7962;BME280;4026;43.652;24.906;2023-02-02T10:06:02;99071.50;;;8.77;69.50
7962;BME280;4026;43.652;24.906;2023-02-02T10:08:34;99072.97;;;9.19;70.70
7962;BME280;4026;43.652;24.906;2023-02-02T10:11:25;99069.69;;;9.43;65.82
7962;BME280;4026;43.652;24.906;2023-02-02T10:13:55;99073.22;;;9.53;66.58
7962;BME280;4026;43.652;24.906;2023-02-02T10:16:23;99059.16;;;9.60;65.58
7962;BME280;4026;43.652;24.906;2023-02-02T10:18:54;99060.66;;;9.63;66.08
7962;BME280;4026;43.652;24.906;2023-02-02T10:21:28;99053.16;;;9.36;63.73
7962;BME280;4026;43.652;24.906;2023-02-02T10:24:01;99044.38;;;9.40;64.46
7962;BME280;4026;43.652;24.906;2023-02-02T10:26:35;99053.16;;;9.36;64.32
7962;BME280;4026;43.652;24.906;2023-02-02T10:29:09;99064.19;;;9.23;65.35
7962;BME280;4026;43.652;24.906;2023-02-02T10:31:42;99061.53;;;8.99;65.30
7962;BME280;4026;43.652;24.906;2023-02-02T10:34:16;99073.75;;;8.81;67.59
7962;BME280;4026;43.652;24.906;2023-02-02T10:37:07;99082.09;;;8.71;67.96
7962;BME280;4026;43.652;24.906;2023-02-02T10:39:55;99070.28;;;8.70;68.30
7962;BME280;4026;43.652;24.906;2023-02-02T10:42:34;99070.69;;;8.76;66.21
7962;BME280;4026;43.652;24.906;2023-02-02T10:45:11;99066.53;;;8.88;64.91
7962;BME280;4026;43.652;24.906;2023-02-02T10:47:39;99056.00;;;8.80;63.93
7962;BME280;4026;43.652;24.906;2023-02-02T10:50:15;99048.88;;;8.85;64.59
7962;BME280;4026;43.652;24.906;2023-02-02T10:52:45;99062.13;;;8.77;64.64
7962;BME280;4026;43.652;24.906;2023-02-02T10:55:21;99057.41;;;8.71;65.33
7962;BME280;4026;43.652;24.906;2023-02-02T10:57:59;99067.53;;;8.73;66.35
7962;BME280;4026;43.652;24.906;2023-02-02T11:00:30;99053.72;;;8.63;67.08
7962;BME280;4026;43.652;24.906;2023-02-02T11:03:00;99040.06;;;8.51;66.93
7962;BME280;4026;43.652;24.906;2023-02-02T11:05:31;99047.13;;;8.33;67.19
7962;BME280;4026;43.652;24.906;2023-02-02T11:08:18;99051.31;;;8.07;69.95
7962;BME280;4026;43.652;24.906;2023-02-02T11:10:49;99053.16;;;7.90;72.17
7962;BME280;4026;43.652;24.906;2023-02-02T11:13:26;99058.81;;;7.81;71.71
7962;BME280;4026;43.652;24.906;2023-02-02T11:16:18;99050.47;;;7.65;73.71
7962;BME280;4026;43.652;24.906;2023-02-02T11:18:46;99049.59;;;7.52;74.82
7962;BME280;4026;43.652;24.906;2023-02-02T11:21:18;99046.13;;;7.38;77.43
7962;BME280;4026;43.652;24.906;2023-02-02T11:23:58;99036.16;;;7.21;78.74
7962;BME280;4026;43.652;24.906;2023-02-02T11:26:40;99038.16;;;7.01;80.70
7962;BME280;4026;43.652;24.906;2023-02-02T11:29:13;99038.50;;;6.81;81.36
7962;BME280;4026;43.652;24.906;2023-02-02T11:31:41;99035.03;;;6.82;82.51
7962;BME280;4026;43.652;24.906;2023-02-02T11:34:16;99046.25;;;6.64;85.14
7962;BME280;4026;43.652;24.906;2023-02-02T11:37:10;99053.50;;;6.55;88.06
7962;BME280;4026;43.652;24.906;2023-02-02T11:39:37;99050.34;;;6.36;91.94
7962;BME280;4026;43.652;24.906;2023-02-02T11:42:11;99057.00;;;6.23;93.60
7962;BME280;4026;43.652;24.906;2023-02-02T11:44:39;99066.34;;;5.90;100.00
7962;BME280;4026;43.652;24.906;2023-02-02T11:47:17;99069.94;;;5.71;100.00
7962;BME280;4026;43.652;24.906;2023-02-02T11:49:45;99083.44;;;5.38;100.00
7962;BME280;4026;43.652;24.906;2023-02-02T11:52:18;99084.69;;;5.13;100.00
7962;BME280;4026;43.652;24.906;2023-02-02T11:54:48;99087.44;;;4.91;100.00
7962;BME280;4026;43.652;24.906;2023-02-02T11:57:19;99096.91;;;4.70;100.00
7962;BME280;4026;43.652;24.906;2023-02-02T11:59:48;99092.88;;;4.49;100.00
7962;BME280;4026;43.652;24.906;2023-02-02T12:02:28;99085.41;;;4.28;100.00
7962;BME280;4026;43.652;24.906;2023-02-02T12:05:13;99086.13;;;4.13;100.00
7962;BME280;4026;43.652;24.906;2023-02-02T12:07:41;99088.16;;;4.05;100.00
7962;BME280;4026;43.652;24.906;2023-02-02T12:10:15;99086.50;;;4.04;100.00
7962;BME280;4026;43.652;24.906;2023-02-02T12:12:55;99061.91;;;4.07;100.00
7962;BME280;4026;43.652;24.906;2023-02-02T12:15:32;99077.47;;;3.98;100.00
7962;BME280;4026;43.652;24.906;2023-02-02T12:18:09;99069.84;;;4.00;100.00
7962;BME280;4026;43.652;24.906;2023-02-02T12:20:42;99054.53;;;4.03;100.00
7962;BME280;4026;43.652;24.906;2023-02-02T12:23:40;99043.81;;;4.15;100.00
7962;BME280;4026;43.652;24.906;2023-02-02T12:26:21;99039.84;;;4.28;100.00
7962;BME280;4026;43.652;24.906;2023-02-02T12:29:29;99024.81;;;4.25;100.00
7962;BME280;4026;43.652;24.906;2023-02-02T12:32:14;99018.66;;;4.12;100.00
7962;BME280;4026;43.652;24.906;2023-02-02T12:34:51;99027.38;;;4.06;100.00
7962;BME280;4026;43.652;24.906;2023-02-02T12:37:30;98990.09;;;4.10;100.00
7962;BME280;4026;43.652;24.906;2023-02-02T12:40:13;98980.41;;;4.01;100.00
7962;BME280;4026;43.652;24.906;2023-02-02T12:42:54;98981.59;;;3.94;100.00
7962;BME280;4026;43.652;24.906;2023-02-02T12:46:05;98960.47;;;3.95;100.00
7962;BME280;4026;43.652;24.906;2023-02-02T12:48:44;98970.44;;;3.98;100.00
7962;BME280;4026;43.652;24.906;2023-02-02T12:51:28;98983.53;;;4.06;100.00
7962;BME280;4026;43.652;24.906;2023-02-02T12:54:23;98980.25;;;4.04;100.00
7962;BME280;4026;43.652;24.906;2023-02-02T12:56:59;98988.44;;;4.09;100.00
7962;BME280;4026;43.652;24.906;2023-02-02T12:59:44;99014.41;;;4.13;100.00
7962;BME280;4026;43.652;24.906;2023-02-02T13:02:21;99006.47;;;4.20;100.00
7962;BME280;4026;43.652;24.906;2023-02-02T13:05:01;99003.19;;;4.18;100.00
7962;BME280;4026;43.652;24.906;2023-02-02T13:07:38;99016.59;;;4.20;100.00
7962;BME280;4026;43.652;24.906;2023-02-02T13:10:16;99022.84;;;4.13;100.00
7962;BME280;4026;43.652;24.906;2023-02-02T13:12:50;99031.78;;;4.20;100.00
7962;BME280;4026;43.652;24.906;2023-02-02T13:15:20;99063.91;;;4.18;100.00
7962;BME280;4026;43.652;24.906;2023-02-02T13:17:52;99053.06;;;4.16;100.00
7962;BME280;4026;43.652;24.906;2023-02-02T13:20:27;99047.78;;;4.21;100.00
7962;BME280;4026;43.652;24.906;2023-02-02T13:22:59;99060.22;;;4.25;100.00
7962;BME280;4026;43.652;24.906;2023-02-02T13:25:30;99055.75;;;4.13;100.00
7962;BME280;4026;43.652;24.906;2023-02-02T13:28:00;99060.81;;;4.13;100.00
7962;BME280;4026;43.652;24.906;2023-02-02T13:30:33;99063.16;;;3.99;100.00
7962;BME280;4026;43.652;24.906;2023-02-02T13:33:06;99043.06;;;3.96;100.00
7962;BME280;4026;43.652;24.906;2023-02-02T13:35:44;99043.44;;;3.86;100.00